Terminal Aerodrome Forecast
Issued by NWS

Home | Current Version | Previous Version | Text Only | Print | Product List | Glossary On
Versions: 1 2 3 4 5 6 7 8 9 10 11 12 13 14 15 16 17 18 19 20
347
FTUS43 KDLH 202328
TAFBRD
TAF
KBRD 202328Z 2100/2124 17015G26KT P6SM BKN200 WS020/18045KT
     FM210400 17015G24KT P6SM BKN120
     FM211000 18013G21KT P6SM VCSH OVC050
     FM211400 17013G22KT P6SM VCSH OVC015
     FM211700 17014G23KT 5SM -SHRA OVC012
     FM212200 21012KT P6SM -SHRA OVC025=

USA.gov is the U.S. government's official web portal to all federal, state and local government web resources and services.